createdAt,value
2017-11-30T00:01:08.741Z,27.20
2017-11-30T00:03:35.311Z,26.67
2017-11-30T00:06:01.890Z,27.70
2017-11-30T00:08:29.969Z,26.30
2017-11-30T00:10:57.591Z,27.33
2017-11-30T00:13:26.769Z,27.27
2017-11-30T00:15:53.540Z,28.07
2017-11-30T00:18:20.159Z,27.50
2017-11-30T00:20:46.587Z,29.90
2017-11-30T00:23:12.973Z,27.90
2017-11-30T00:25:39.526Z,25.60
2017-11-30T00:28:06.895Z,26.33
2017-11-30T00:30:33.268Z,30.43
2017-11-30T00:33:00.038Z,29.00
2017-11-30T00:35:27.527Z,29.43
2017-11-30T00:37:53.999Z,28.80
2017-11-30T00:40:20.714Z,28.93
2017-11-30T00:42:59.255Z,30.20
2017-11-30T00:45:25.827Z,31.53
2017-11-30T00:47:52.254Z,29.80
2017-11-30T00:50:18.695Z,30.00
2017-11-30T00:52:45.228Z,31.23
2017-11-30T00:55:11.687Z,29.60
2017-11-30T00:57:38.088Z,27.90
2017-11-30T01:00:04.806Z,26.50
2017-11-30T01:02:31.291Z,30.87
2017-11-30T01:04:57.747Z,30.07
2017-11-30T01:07:25.019Z,30.90
2017-11-30T01:09:52.140Z,29.43
2017-11-30T01:12:18.589Z,30.10
2017-11-30T01:14:45.022Z,30.87
2017-11-30T01:17:11.437Z,29.77
2017-11-30T01:19:38.621Z,30.03
2017-11-30T01:22:05.143Z,28.83
2017-11-30T01:24:31.486Z,28.20
2017-11-30T01:26:58.594Z,29.50
2017-11-30T01:29:25.934Z,29.30
2017-11-30T01:31:52.530Z,29.37
2017-11-30T01:34:18.969Z,27.87
2017-11-30T01:36:45.454Z,31.00
2017-11-30T01:39:11.835Z,28.57
2017-11-30T01:41:38.948Z,33.00
2017-11-30T01:44:06.678Z,28.63
2017-11-30T01:46:33.424Z,30.50
2017-11-30T01:49:00.085Z,31.80
2017-11-30T01:51:26.777Z,28.83
2017-11-30T01:53:53.864Z,28.87
2017-11-30T01:56:20.424Z,33.20
2017-11-30T01:58:46.876Z,31.87
2017-11-30T02:01:13.343Z,30.73
2017-11-30T02:03:39.838Z,32.60
2017-11-30T02:06:07.215Z,31.47
2017-11-30T02:08:33.640Z,29.07
2017-11-30T02:11:00.860Z,28.97
2017-11-30T02:13:27.394Z,28.77
2017-11-30T02:15:53.822Z,32.37
2017-11-30T02:18:20.189Z,27.03
2017-11-30T02:20:46.684Z,26.93
2017-11-30T02:23:13.122Z,29.07
2017-11-30T02:25:39.552Z,29.07
2017-11-30T02:28:06.232Z,28.17
2017-11-30T02:30:33.528Z,27.40
2017-11-30T02:33:00.248Z,28.33
2017-11-30T02:35:27.476Z,26.83
2017-11-30T02:37:53.966Z,27.80
2017-11-30T02:40:20.418Z,30.10
2017-11-30T02:42:47.417Z,31.17
2017-11-30T02:45:15.080Z,30.17
2017-11-30T02:47:41.610Z,31.70
2017-11-30T02:50:08.160Z,28.13
2017-11-30T02:52:34.620Z,27.67
2017-11-30T02:55:01.255Z,29.50
2017-11-30T02:57:27.828Z,28.23
2017-11-30T02:59:54.427Z,32.80
2017-11-30T03:02:21.098Z,27.97
2017-11-30T03:04:47.745Z,27.20
2017-11-30T03:07:15.100Z,27.07
2017-11-30T03:09:41.964Z,27.17
2017-11-30T03:12:08.557Z,32.43
2017-11-30T03:14:36.093Z,28.87
2017-11-30T03:17:02.898Z,31.23
2017-11-30T03:19:36.378Z,28.77
2017-11-30T03:22:02.829Z,28.53
2017-11-30T03:24:31.225Z,30.40
2017-11-30T03:27:13.747Z,28.60
2017-11-30T03:29:40.382Z,29.67
2017-11-30T03:32:08.597Z,29.00
2017-11-30T03:34:35.316Z,30.97
2017-11-30T03:37:01.890Z,31.20
2017-11-30T03:39:28.497Z,32.00
2017-11-30T03:41:55.011Z,29.80
2017-11-30T03:44:22.577Z,29.07
2017-11-30T03:46:49.218Z,27.27
2017-11-30T03:49:16.337Z,28.73
2017-11-30T03:51:42.842Z,28.50
2017-11-30T03:54:09.426Z,28.80
2017-11-30T03:56:36.279Z,24.90
2017-11-30T03:59:02.987Z,26.20
2017-11-30T04:01:29.525Z,27.30
2017-11-30T04:03:56.408Z,26.43
2017-11-30T04:06:23.742Z,27.07
2017-11-30T04:08:50.341Z,28.67
2017-11-30T04:11:17.364Z,26.10
2017-11-30T04:13:44.460Z,28.83
2017-11-30T04:16:11.199Z,29.20
2017-11-30T04:18:37.783Z,27.70
2017-11-30T04:21:05.024Z,26.07
2017-11-30T04:23:32.035Z,26.47
2017-11-30T04:25:59.064Z,28.43
2017-11-30T04:28:25.661Z,28.00
2017-11-30T04:30:52.332Z,28.30
2017-11-30T04:33:19.796Z,27.07
2017-11-30T04:35:46.716Z,28.50
2017-11-30T04:38:13.399Z,29.70
2017-11-30T04:40:39.938Z,30.70
2017-11-30T04:43:06.573Z,33.33
2017-11-30T04:45:34.874Z,32.67
2017-11-30T04:48:01.422Z,29.80
2017-11-30T04:50:29.111Z,33.30
2017-11-30T04:52:55.627Z,31.50
2017-11-30T04:55:22.498Z,30.60
2017-11-30T04:57:49.130Z,33.20
2017-11-30T05:00:15.767Z,30.40
2017-11-30T05:02:42.354Z,34.63
2017-11-30T05:05:08.852Z,35.00
2017-11-30T05:07:35.559Z,33.30
2017-11-30T05:10:07.203Z,34.50
2017-11-30T05:12:34.160Z,34.00
2017-11-30T05:15:00.829Z,36.90
2017-11-30T05:17:28.027Z,33.33
2017-11-30T05:19:55.311Z,35.43
2017-11-30T05:22:21.896Z,38.93
2017-11-30T05:24:48.399Z,35.17
2017-11-30T05:27:16.007Z,33.80
2017-11-30T05:29:43.322Z,37.60
2017-11-30T05:32:10.074Z,35.17
2017-11-30T05:34:37.535Z,31.30
2017-11-30T05:37:04.177Z,34.83
2017-11-30T05:39:30.875Z,33.93
2017-11-30T05:42:04.289Z,33.20
2017-11-30T05:44:30.861Z,31.90
2017-11-30T05:46:57.703Z,34.27
2017-11-30T05:49:25.779Z,32.17
2017-11-30T05:52:00.294Z,31.90
2017-11-30T05:54:26.938Z,32.40
2017-11-30T05:56:53.903Z,32.70
2017-11-30T05:59:20.714Z,35.87
2017-11-30T06:01:47.323Z,30.73
2017-11-30T06:04:14.775Z,33.23
2017-11-30T06:06:41.397Z,33.80
2017-11-30T06:09:07.910Z,30.63
2017-11-30T06:11:34.543Z,32.47
2017-11-30T06:14:01.565Z,32.37
2017-11-30T06:16:28.152Z,32.57
2017-11-30T06:18:54.803Z,30.33
2017-11-30T06:21:21.421Z,33.87
2017-11-30T06:23:48.692Z,32.40
2017-11-30T06:26:15.241Z,32.57
2017-11-30T06:28:41.774Z,32.13
2017-11-30T06:31:09.204Z,35.40
2017-11-30T06:33:36.546Z,32.77
2017-11-30T06:36:03.228Z,32.37
2017-11-30T06:38:30.196Z,32.90
2017-11-30T06:40:57.801Z,34.53
2017-11-30T06:43:24.748Z,32.57
2017-11-30T06:45:51.411Z,34.03
2017-11-30T06:48:18.111Z,35.80
2017-11-30T06:50:44.918Z,32.20
2017-11-30T06:53:11.602Z,30.27
2017-11-30T06:55:38.269Z,31.63
2017-11-30T06:58:04.901Z,32.77
2017-11-30T07:00:31.501Z,32.63
2017-11-30T07:02:58.084Z,33.53
2017-11-30T07:05:26.234Z,31.50
2017-11-30T07:07:52.771Z,33.87
2017-11-30T07:10:19.301Z,30.60
2017-11-30T07:12:46.896Z,35.17
2017-11-30T07:15:13.467Z,33.00
2017-11-30T07:17:40.186Z,34.27
2017-11-30T07:20:06.971Z,35.27
2017-11-30T07:22:33.524Z,32.97
2017-11-30T07:25:00.014Z,32.40
2017-11-30T07:27:26.513Z,33.30
2017-11-30T07:29:53.063Z,32.50
2017-11-30T07:32:19.529Z,33.90
2017-11-30T07:34:45.981Z,32.27
2017-11-30T07:37:12.486Z,32.70
2017-11-30T07:39:38.989Z,36.00
2017-11-30T07:42:05.551Z,34.53
2017-11-30T07:44:32.123Z,35.47
2017-11-30T07:46:58.560Z,35.27
2017-11-30T07:49:26.222Z,35.93
2017-11-30T07:51:52.912Z,33.70
2017-11-30T07:54:20.678Z,34.97
2017-11-30T07:56:47.473Z,33.70
2017-11-30T07:59:14.307Z,32.87
2017-11-30T08:01:40.864Z,33.60
2017-11-30T08:04:07.664Z,31.37
2017-11-30T08:06:34.248Z,32.70
2017-11-30T08:09:00.940Z,30.30
2017-11-30T08:11:27.680Z,30.47
2017-11-30T08:13:55.332Z,30.27
2017-11-30T08:16:22.744Z,29.47
2017-11-30T08:18:50.031Z,30.80
2017-11-30T08:21:16.789Z,28.27
2017-11-30T08:23:43.404Z,30.20
2017-11-30T08:26:10.080Z,29.77
2017-11-30T08:28:36.759Z,30.33
2017-11-30T08:31:03.431Z,31.93
2017-11-30T08:33:29.976Z,29.97
2017-11-30T08:35:56.489Z,29.70
2017-11-30T08:38:23.063Z,31.67
2017-11-30T08:40:49.894Z,27.43
2017-11-30T08:43:16.428Z,31.20
2017-11-30T08:45:42.987Z,31.43
2017-11-30T08:48:09.750Z,32.07
2017-11-30T08:50:36.379Z,31.67
2017-11-30T08:53:03.671Z,31.07
2017-11-30T08:55:30.632Z,30.60
2017-11-30T08:57:57.134Z,29.07
2017-11-30T09:00:23.826Z,28.40
2017-11-30T09:02:50.381Z,29.67
2017-11-30T09:05:16.942Z,27.10
2017-11-30T09:07:43.552Z,32.60
2017-11-30T09:10:10.894Z,28.10
2017-11-30T09:12:37.453Z,28.07
2017-11-30T09:15:04.094Z,28.00
2017-11-30T09:17:30.718Z,30.67
2017-11-30T09:19:57.281Z,28.30
2017-11-30T09:22:23.811Z,28.33
2017-11-30T09:24:50.707Z,29.60
2017-11-30T09:27:17.331Z,30.87
2017-11-30T09:29:43.871Z,28.80
2017-11-30T09:32:10.469Z,30.00
2017-11-30T09:34:37.092Z,28.33
2017-11-30T09:37:04.906Z,25.40
2017-11-30T09:39:31.600Z,24.93
2017-11-30T09:41:58.163Z,26.43
2017-11-30T09:44:24.760Z,26.90
2017-11-30T09:46:51.481Z,26.70
2017-11-30T09:49:18.782Z,26.30
2017-11-30T09:51:46.304Z,29.23
2017-11-30T09:54:13.309Z,25.50
2017-11-30T09:56:39.878Z,25.90
2017-11-30T09:59:07.102Z,28.27
2017-11-30T10:01:33.748Z,26.87
2017-11-30T10:04:00.475Z,24.37
2017-11-30T10:06:27.055Z,27.00
2017-11-30T10:08:53.932Z,29.57
2017-11-30T10:11:20.518Z,28.07
2017-11-30T10:13:47.099Z,27.63
2017-11-30T10:16:13.782Z,27.63
2017-11-30T10:18:40.315Z,28.70
2017-11-30T10:21:06.916Z,31.13
2017-11-30T10:23:33.570Z,29.00
2017-11-30T10:26:00.175Z,28.70
2017-11-30T10:28:26.887Z,30.47
2017-11-30T10:30:53.980Z,30.10
2017-11-30T10:33:20.546Z,34.60
2017-11-30T10:35:47.239Z,30.00
2017-11-30T10:38:13.883Z,27.97
2017-11-30T10:40:40.456Z,28.93
2017-11-30T10:43:07.831Z,29.37
2017-11-30T10:45:35.444Z,26.90
2017-11-30T10:48:02.120Z,26.60
2017-11-30T10:50:29.417Z,28.00
2017-11-30T10:52:57.017Z,27.53
2017-11-30T10:55:23.553Z,28.60
2017-11-30T10:57:50.109Z,27.23
2017-11-30T11:00:17.241Z,26.90
2017-11-30T11:02:44.098Z,24.47
2017-11-30T11:05:10.791Z,26.60
2017-11-30T11:07:37.342Z,26.90
2017-11-30T11:10:04.040Z,25.93
2017-11-30T11:12:30.822Z,24.97
2017-11-30T11:14:57.379Z,26.93
2017-11-30T11:17:24.105Z,25.83
2017-11-30T11:19:50.653Z,24.90
2017-11-30T11:22:17.298Z,24.30
2017-11-30T11:24:43.886Z,24.33
2017-11-30T11:27:10.482Z,25.27
2017-11-30T11:29:37.785Z,25.50
2017-11-30T11:32:04.597Z,26.43
2017-11-30T11:34:31.276Z,23.00
2017-11-30T11:36:58.052Z,20.77
2017-11-30T11:39:24.488Z,23.40
2017-11-30T11:41:51.642Z,23.73
2017-11-30T11:44:18.731Z,23.80
2017-11-30T11:46:45.411Z,23.43
2017-11-30T11:49:12.074Z,22.97
2017-11-30T11:51:38.560Z,21.33
2017-11-30T11:54:05.164Z,22.20
2017-11-30T11:56:32.395Z,26.77
2017-11-30T11:58:59.005Z,24.43
2017-11-30T12:01:25.565Z,23.60
2017-11-30T12:03:52.034Z,25.43
2017-11-30T12:06:19.204Z,21.17
2017-11-30T12:08:45.837Z,23.97
2017-11-30T12:11:12.520Z,24.00
2017-11-30T12:13:40.447Z,27.90
2017-11-30T12:16:07.808Z,27.40
2017-11-30T12:18:35.122Z,25.60
2017-11-30T12:21:01.752Z,25.37
2017-11-30T12:23:28.352Z,27.03
2017-11-30T12:25:55.096Z,27.57
2017-11-30T12:28:21.816Z,24.43
2017-11-30T12:30:48.449Z,26.33
2017-11-30T12:33:15.109Z,23.87
2017-11-30T12:35:42.016Z,27.23
2017-11-30T12:38:08.686Z,27.70
2017-11-30T12:40:35.267Z,23.47
2017-11-30T12:43:01.973Z,25.00
2017-11-30T12:45:28.571Z,26.33
2017-11-30T12:47:55.519Z,25.10
2017-11-30T12:50:22.264Z,26.30
2017-11-30T12:52:48.935Z,26.63
2017-11-30T12:55:15.840Z,26.07
2017-11-30T12:57:42.575Z,24.80
2017-11-30T13:00:09.333Z,26.50
2017-11-30T13:02:36.163Z,24.80
2017-11-30T13:05:03.202Z,27.20
2017-11-30T13:07:29.860Z,26.27
2017-11-30T13:09:56.423Z,27.53
2017-11-30T13:12:23.273Z,25.77
2017-11-30T13:14:50.761Z,25.10
2017-11-30T13:17:17.312Z,27.03
2017-11-30T13:19:44.337Z,27.00
2017-11-30T13:22:10.959Z,24.73
2017-11-30T13:24:37.606Z,27.90
2017-11-30T13:27:04.178Z,27.60
2017-11-30T13:29:30.637Z,24.53
2017-11-30T13:31:57.153Z,23.37
2017-11-30T13:34:23.820Z,26.07
2017-11-30T13:36:50.298Z,24.90
2017-11-30T13:39:17.033Z,24.90
2017-11-30T13:41:49.985Z,23.90
2017-11-30T13:44:16.598Z,27.30
2017-11-30T13:46:43.208Z,26.00
2017-11-30T13:49:10.449Z,25.30
2017-11-30T13:51:37.062Z,24.63
2017-11-30T13:54:04.532Z,23.40
2017-11-30T13:56:32.611Z,24.13
2017-11-30T13:58:59.166Z,23.07
2017-11-30T14:01:25.730Z,26.10
2017-11-30T14:03:52.172Z,23.87
2017-11-30T14:06:18.682Z,25.47
2017-11-30T14:08:45.219Z,25.13
2017-11-30T14:11:12.406Z,26.77
2017-11-30T14:13:38.885Z,26.90
2017-11-30T14:16:05.386Z,27.40
2017-11-30T14:18:31.893Z,27.97
2017-11-30T14:20:58.326Z,25.93
2017-11-30T14:23:25.633Z,25.40
2017-11-30T14:25:53.495Z,25.40
2017-11-30T14:28:20.963Z,27.00
2017-11-30T14:30:48.604Z,28.97
2017-11-30T14:33:15.165Z,28.33
2017-11-30T14:35:42.388Z,29.07
2017-11-30T14:38:21.837Z,26.90
2017-11-30T14:40:48.386Z,28.63
2017-11-30T14:43:14.967Z,29.93
2017-11-30T14:45:41.535Z,29.70
2017-11-30T14:48:08.164Z,27.60
2017-11-30T14:50:36.312Z,30.00
2017-11-30T14:53:02.871Z,28.83
2017-11-30T14:55:29.378Z,28.57
2017-11-30T14:57:55.984Z,28.53
2017-11-30T15:00:22.518Z,30.60
2017-11-30T15:02:49.796Z,30.57
2017-11-30T15:05:16.445Z,29.03
2017-11-30T15:07:45.779Z,30.10
2017-11-30T15:10:12.366Z,30.40
2017-11-30T15:12:39.636Z,29.83
2017-11-30T15:15:07.726Z,28.50
2017-11-30T15:17:35.925Z,28.80
2017-11-30T15:20:02.740Z,29.03
2017-11-30T15:22:30.207Z,26.60
2017-11-30T15:24:56.849Z,28.73
2017-11-30T15:27:23.307Z,30.73
2017-11-30T15:29:49.804Z,32.27
2017-11-30T15:32:16.272Z,29.77
2017-11-30T15:34:43.587Z,31.90
2017-11-30T15:37:10.176Z,28.53
2017-11-30T15:39:36.799Z,31.07
2017-11-30T15:42:03.352Z,29.87
2017-11-30T15:44:31.200Z,31.63
2017-11-30T15:46:57.759Z,35.63
2017-11-30T15:49:24.295Z,31.70
2017-11-30T15:51:51.444Z,29.90
2017-11-30T15:54:18.104Z,31.93
2017-11-30T15:56:44.697Z,31.57
2017-11-30T15:59:12.531Z,31.60
2017-11-30T16:01:39.100Z,30.83
2017-11-30T16:04:05.941Z,30.10
2017-11-30T16:06:32.558Z,29.97
2017-11-30T16:08:59.192Z,30.57
2017-11-30T16:11:25.721Z,30.40
2017-11-30T16:13:52.204Z,29.40
2017-11-30T16:16:19.383Z,30.20
2017-11-30T16:18:45.811Z,32.10
2017-11-30T16:21:12.462Z,31.87
2017-11-30T16:23:39.294Z,33.43
2017-11-30T16:26:05.800Z,32.93
2017-11-30T16:28:32.857Z,31.90
2017-11-30T16:31:00.524Z,33.80
2017-11-30T16:33:27.163Z,31.67
2017-11-30T16:35:55.631Z,29.93
2017-11-30T16:38:23.550Z,31.90
2017-11-30T16:40:50.320Z,31.43
2017-11-30T16:43:17.213Z,33.57
2017-11-30T16:45:44.101Z,31.60
2017-11-30T16:48:10.728Z,32.40
2017-11-30T16:50:38.054Z,30.70
2017-11-30T16:53:04.683Z,32.07
2017-11-30T16:55:31.256Z,34.57
2017-11-30T16:57:58.441Z,33.30
2017-11-30T17:00:27.112Z,35.70
2017-11-30T17:02:53.854Z,34.37
2017-11-30T17:05:20.978Z,36.97
2017-11-30T17:07:47.594Z,34.83
2017-11-30T17:10:14.247Z,37.73
2017-11-30T17:12:41.220Z,33.77
2017-11-30T17:15:08.673Z,35.17
2017-11-30T17:17:36.325Z,35.63
2017-11-30T17:20:02.942Z,33.40
2017-11-30T17:22:30.077Z,37.70
2017-11-30T17:24:56.759Z,35.00
2017-11-30T17:27:24.605Z,39.43
2017-11-30T17:29:51.392Z,42.50
2017-11-30T17:32:18.140Z,40.37
2017-11-30T17:34:44.897Z,40.60
2017-11-30T17:37:11.612Z,41.23
2017-11-30T17:39:38.452Z,44.80
2017-11-30T17:42:05.665Z,40.87
2017-11-30T17:44:32.912Z,38.97
2017-11-30T17:47:00.899Z,38.17
2017-11-30T17:49:28.182Z,37.57
2017-11-30T17:51:55.289Z,37.17
2017-11-30T17:54:22.480Z,37.20
2017-11-30T17:56:49.510Z,41.23
2017-11-30T17:59:17.824Z,33.90
2017-11-30T18:01:46.055Z,35.43
2017-11-30T18:04:13.802Z,36.70
2017-11-30T18:06:40.366Z,34.33
2017-11-30T18:09:07.467Z,41.37
2017-11-30T18:11:35.234Z,38.73
2017-11-30T18:14:03.907Z,36.13
2017-11-30T18:16:32.384Z,36.03
2017-11-30T18:18:59.410Z,36.77
2017-11-30T18:21:27.560Z,37.30
2017-11-30T18:23:55.442Z,37.07
2017-11-30T18:26:23.393Z,35.53
2017-11-30T18:28:50.345Z,37.90
2017-11-30T18:31:16.847Z,36.50
2017-11-30T18:33:45.398Z,36.77
2017-11-30T18:36:13.168Z,38.40
2017-11-30T18:38:39.679Z,37.13
2017-11-30T18:41:07.687Z,35.93
2017-11-30T18:43:34.838Z,35.73
2017-11-30T18:46:03.153Z,34.73
2017-11-30T18:48:30.066Z,34.30
2017-11-30T18:50:56.577Z,32.63
2017-11-30T18:53:23.171Z,36.47
2017-11-30T18:55:49.753Z,35.57
2017-11-30T18:58:16.322Z,36.37
2017-11-30T19:00:43.666Z,37.63
2017-11-30T19:03:11.470Z,37.97
2017-11-30T19:05:38.091Z,36.10
2017-11-30T19:08:05.816Z,37.50
2017-11-30T19:10:32.823Z,37.90
2017-11-30T19:13:00.031Z,41.47
2017-11-30T19:15:26.699Z,39.03
2017-11-30T19:17:53.846Z,38.90
2017-11-30T19:20:20.481Z,39.33
2017-11-30T19:22:46.981Z,37.87
2017-11-30T19:25:13.731Z,37.00
2017-11-30T19:27:40.456Z,36.13
2017-11-30T19:30:07.827Z,40.00
2017-11-30T19:32:34.387Z,35.20
2017-11-30T19:35:00.943Z,40.80
2017-11-30T19:37:27.847Z,37.90
2017-11-30T19:39:54.395Z,37.00
2017-11-30T19:42:20.881Z,38.23
2017-11-30T19:44:48.420Z,38.67
2017-11-30T19:47:15.078Z,40.57
2017-11-30T19:49:42.510Z,38.97
2017-11-30T19:52:09.699Z,40.80
2017-11-30T19:54:36.309Z,38.90
2017-11-30T19:57:02.818Z,36.80
2017-11-30T19:59:29.443Z,38.30
2017-11-30T20:01:56.286Z,38.07
2017-11-30T20:04:22.915Z,39.90
2017-11-30T20:06:49.505Z,36.80
2017-11-30T20:09:16.105Z,38.23
2017-11-30T20:11:42.651Z,39.17
2017-11-30T20:14:11.230Z,38.47
2017-11-30T20:16:38.025Z,36.13
2017-11-30T20:19:04.514Z,34.80
2017-11-30T20:21:31.091Z,37.50
2017-11-30T20:23:57.918Z,36.47
2017-11-30T20:26:24.399Z,35.90
2017-11-30T20:28:50.988Z,35.43
2017-11-30T20:31:17.505Z,41.20
2017-11-30T20:33:44.069Z,35.80
2017-11-30T20:36:10.561Z,36.00
2017-11-30T20:38:37.128Z,36.70
2017-11-30T20:41:03.843Z,34.83
2017-11-30T20:43:30.411Z,37.40
2017-11-30T20:45:58.344Z,36.53
2017-11-30T20:48:24.994Z,35.57
2017-11-30T20:50:51.626Z,38.80
2017-11-30T20:53:18.805Z,36.90
2017-11-30T20:55:45.301Z,35.83
2017-11-30T20:58:12.535Z,33.67
2017-11-30T21:00:39.248Z,31.33
2017-11-30T21:03:05.832Z,29.50
2017-11-30T21:05:33.116Z,31.13
2017-11-30T21:08:00.400Z,30.83
2017-11-30T21:10:26.937Z,23.87
2017-11-30T21:12:53.795Z,25.47
2017-11-30T21:15:20.337Z,26.30
2017-11-30T21:17:47.710Z,26.63
2017-11-30T21:20:14.253Z,26.77
2017-11-30T21:22:40.876Z,25.63
2017-11-30T21:25:08.410Z,26.07
2017-11-30T21:27:35.127Z,31.00
2017-11-30T21:30:01.682Z,30.03
2017-11-30T21:32:28.173Z,29.23
2017-11-30T21:34:56.007Z,34.70
2017-11-30T21:37:22.704Z,31.60
2017-11-30T21:39:49.209Z,30.23
2017-11-30T21:42:15.811Z,30.80
2017-11-30T21:44:42.471Z,30.17
2017-11-30T21:47:08.950Z,31.37
2017-11-30T21:49:35.532Z,29.60
2017-11-30T21:52:03.540Z,32.77
2017-11-30T21:54:30.126Z,28.63
2017-11-30T21:56:56.719Z,25.33
2017-11-30T21:59:23.649Z,24.77
2017-11-30T22:01:50.346Z,25.10
2017-11-30T22:04:16.945Z,23.60
2017-11-30T22:06:44.985Z,24.67
2017-11-30T22:09:11.627Z,24.70
2017-11-30T22:11:49.156Z,22.73
2017-11-30T22:14:16.569Z,22.83
2017-11-30T22:16:44.831Z,20.17
2017-11-30T22:19:12.184Z,22.83
2017-11-30T22:21:38.924Z,19.97
2017-11-30T22:24:05.492Z,22.47
2017-11-30T22:26:33.288Z,21.83
2017-11-30T22:28:59.824Z,19.30
2017-11-30T22:31:27.216Z,20.23
2017-11-30T22:33:54.474Z,19.83
2017-11-30T22:36:21.755Z,21.07
2017-11-30T22:38:48.931Z,21.70
2017-11-30T22:41:15.551Z,19.60
2017-11-30T22:43:42.963Z,18.10
2017-11-30T22:46:10.025Z,18.97
2017-11-30T22:48:36.790Z,16.47
2017-11-30T22:51:03.456Z,20.90
2017-11-30T22:53:30.085Z,18.20
2017-11-30T22:55:56.837Z,15.87
2017-11-30T22:58:23.446Z,15.10
2017-11-30T23:00:49.978Z,15.73
2017-11-30T23:03:16.820Z,13.37
2017-11-30T23:05:43.511Z,12.73
2017-11-30T23:08:10.131Z,16.37
2017-11-30T23:10:37.499Z,16.73
2017-11-30T23:13:04.020Z,15.70
2017-11-30T23:15:30.657Z,13.90
2017-11-30T23:17:58.274Z,14.00
2017-11-30T23:20:24.825Z,12.97
2017-11-30T23:22:51.512Z,15.30
2017-11-30T23:25:21.289Z,13.13
2017-11-30T23:27:47.956Z,17.47
2017-11-30T23:30:14.565Z,13.17
2017-11-30T23:32:41.944Z,13.77
2017-11-30T23:35:08.588Z,15.93
2017-11-30T23:37:35.116Z,14.23
2017-11-30T23:40:02.094Z,14.43
2017-11-30T23:42:29.711Z,13.60
2017-11-30T23:44:56.183Z,14.40
2017-11-30T23:47:22.856Z,12.83
2017-11-30T23:49:49.422Z,13.03
2017-11-30T23:52:15.922Z,9.97
2017-11-30T23:54:42.550Z,9.10
2017-11-30T23:57:09.762Z,9.30
2017-11-30T23:59:36.317Z,6.80
